Ebbco — WCP3976 — position and weather

sailwx.info

Track history (hours):
 
Tides and Currents Weather Stations Pressure Air Temp Water Temp Dewpoint Dewpoint Depression Visibility Wind Speed Wind Dir Waves Ship Positions

Ebbco

Owner: EVERINGHAM BROS BAIT CO, La Mesa, CA. More information available from US FCC via Universal Licensing System.

Last reported at 2018-Jul-21 19:30 UTC. Time now 2018-Jul-21 19:36 UTC.
Position N 32°53' W 117°17'.

Length 34 m.

Type: Fishing. MMSI: 367378380.

Date/timePositionNaut miles runAvg speedWind from/ knotsBaromVisibWave heightAir tempDewpointWater temp
2018-Jul-21 19:30N 32°53' W 117°17'2 0.3
2018-Jul-21 12:11N 32°52' W 117°18'1 7.1
2018-Jul-21 12:01N 32°51' W 117°19'4 7.1
2018-Jul-21 11:30N 32°47' W 117°18'8 6.0
2018-Jul-21 10:07N 32°40' W 117°14'3 6.8
2018-Jul-21 09:42N 32°43' W 117°13'1 0.0
2018-Jul-19 22:29N 32°42' W 117°14'0 0.0
2018-Jul-19 20:59N 32°42' W 117°14'3 1.6
2018-Jul-19 19:10N 32°39' W 117°14'2 6.8
2018-Jul-19 18:51N 32°40' W 117°16'3 7.6
2018-Jul-19 18:30N 32°43' W 117°17'4 7.5
2018-Jul-19 18:00N 32°46' W 117°18'4 7.5
2018-Jul-19 17:30N 32°50' W 117°19'4 7.4
2018-Jul-19 17:00N 32°54' W 117°19'4 7.2
2018-Jul-19 16:30N 32°57' W 117°19'4 7.3
2018-Jul-19 16:00N 33°01' W 117°20'4 7.1
2018-Jul-19 15:30N 33°04' W 117°21'4 7.3
2018-Jul-19 15:00N 33°08' W 117°21'0 0.3
2018-Jul-19 14:29N 33°08' W 117°21'1 0.9
2018-Jul-19 13:30N 33°07' W 117°21'3 6.2
2018-Jul-19 13:00N 33°04' W 117°20'4 7.4
2018-Jul-19 12:30N 33°01' W 117°19'3 6.9
2018-Jul-19 12:00N 32°58' W 117°17'3 5.1
2018-Jul-19 11:29N 32°55' W 117°16'2 3.5
2018-Jul-19 11:00N 32°53' W 117°16'4 6.8
2018-Jul-19 10:29N 32°50' W 117°18'4 7.5
2018-Jul-19 09:57N 32°47' W 117°16'2 0.1
2018-Jul-18 20:34N 32°46' W 117°14'0 0.7
2018-Jul-18 20:21N 32°46' W 117°15'0 0.0
2018-Jul-18 16:31N 32°46' W 117°14'0 4.2
2018-Jul-18 16:25N 32°46' W 117°15'3 6.4
2018-Jul-18 15:58N 32°48' W 117°17'3 7.1
2018-Jul-18 15:30N 32°51' W 117°18'4 7.2
2018-Jul-18 14:58N 32°54' W 117°16'1 1.3
2018-Jul-18 14:27N 32°55' W 117°16'0 0.1
2018-Jul-18 13:30N 32°55' W 117°16'1 1.2
2018-Jul-18 13:00N 32°54' W 117°16'1 2.7
2018-Jul-18 12:30N 32°53' W 117°16'0 0.3
2018-Jul-18 11:58N 32°53' W 117°16'0 0.1
2018-Jul-18 11:28N 32°53' W 117°16'5 4.8
2018-Jul-18 10:30N 32°49' W 117°19'9 7.1
2018-Jul-18 09:11N 32°40' W 117°16'2 5.1
2018-Jul-18 08:50N 32°40' W 117°14'3 7.2
2018-Jul-18 08:27N 32°43' W 117°13'1 0.1
2018-Jul-17 17:18N 32°43' W 117°12'2 1.3
2018-Jul-17 15:54N 32°42' W 117°14'0 0.6
2018-Jul-17 15:09N 32°42' W 117°14'3 5.5
2018-Jul-17 14:40N 32°39' W 117°14'2 6.7
2018-Jul-17 14:24N 32°40' W 117°16'3 7.6
2018-Jul-17 13:58N 32°43' W 117°17'3 2.5
2018-Jul-17 12:37N 32°46' W 117°14'1 4.1
2018-Jul-17 12:28N 32°46' W 117°15'2 3.2
2018-Jul-17 11:59N 32°47' W 117°16'0 0.1
2018-Jul-17 11:23N 32°47' W 117°16'0 0.7
2018-Jul-17 11:00N 32°47' W 117°16'5 2.2
2018-Jul-17 08:39N 32°43' W 117°13'1 0.1
2018-Jul-16 19:26N 32°42' W 117°14'3 3.9
2018-Jul-16 18:45N 32°39' W 117°15'2 7.0
2018-Jul-16 18:29N 32°41' W 117°16'4 7.6
2018-Jul-16 18:00N 32°44' W 117°17'4 7.5
2018-Jul-16 17:30N 32°48' W 117°18'4 7.3
2018-Jul-16 17:00N 32°51' W 117°17'4 7.5
2018-Jul-16 16:30N 32°55' W 117°16'1 1.5
2018-Jul-16 15:58N 32°56' W 117°16'0 0.1
2018-Jul-16 15:30N 32°56' W 117°16'0 0.9
2018-Jul-16 15:00N 32°56' W 117°16'1 1.8
2018-Jul-16 14:30N 32°57' W 117°17'0 0.1
2018-Jul-16 13:59N 32°57' W 117°17'0 0.1
2018-Jul-16 13:30N 32°57' W 117°17'3 6.6
2018-Jul-16 13:00N 33°00' W 117°18'3 5.7
2018-Jul-16 12:30N 32°57' W 117°17'3 5.0
2018-Jul-16 12:00N 32°55' W 117°16'1 1.9
2018-Jul-16 11:30N 32°54' W 117°16'3 6.8
2018-Jul-16 11:00N 32°51' W 117°18'6 7.3
2018-Jul-16 10:14N 32°46' W 117°17'2 7.4
2018-Jul-16 10:00N 32°44' W 117°17'4 6.9
2018-Jul-16 09:21N 32°40' W 117°16'3 5.3
2018-Jul-16 08:49N 32°42' W 117°14'1 0.1
2018-Jul-15 17:15N 32°43' W 117°13'2 1.4
2018-Jul-15 16:07N 32°42' W 117°14'0 0.0
2018-Jul-15 15:37N 32°42' W 117°14'3 1.8
2018-Jul-15 14:05N 32°39' W 117°15'1 6.7
2018-Jul-15 13:58N 32°39' W 117°16'4 7.3
2018-Jul-15 13:27N 32°43' W 117°18'3 7.4
2018-Jul-15 13:00N 32°46' W 117°19'4 7.4
2018-Jul-15 12:30N 32°50' W 117°19'4 7.2
2018-Jul-15 12:00N 32°53' W 117°17'2 3.3
2018-Jul-15 11:30N 32°54' W 117°16'0 0.4
2018-Jul-15 11:00N 32°54' W 117°16'0 0.1
2018-Jul-15 10:30N 32°54' W 117°16'1 1.0
2018-Jul-15 09:55N 32°53' W 117°16'0 0.2
2018-Jul-15 09:28N 32°53' W 117°16'0 0.3
2018-Jul-15 09:00N 32°53' W 117°16'3 6.5
2018-Jul-15 08:30N 32°51' W 117°18'11 5.6
2018-Jul-15 06:27N 32°40' W 117°14'3 0.2
2018-Jul-14 15:54N 32°43' W 117°13'4 2.3
2018-Jul-14 14:00N 32°39' W 117°15'4 7.0
2018-Jul-14 13:27N 32°43' W 117°17'3 6.7
2018-Jul-14 13:00N 32°45' W 117°15'1 0.5
2018-Jul-14 11:47N 32°46' W 117°15'2 5.8
2018-Jul-14 11:29N 32°46' W 117°17'3 6.9
2018-Jul-14 11:00N 32°48' W 117°19'3 6.8
2018-Jul-14 10:30N 32°52' W 117°18'3 6.3
2018-Jul-14 10:00N 32°55' W 117°16'0 0.4
2018-Jul-14 09:29N 32°55' W 117°16'0 0.2
2018-Jul-14 09:00N 32°55' W 117°16'1 2.5
2018-Jul-14 08:30N 32°56' W 117°17'4 6.9
2018-Jul-14 08:00N 32°59' W 117°19'3 7.1
2018-Jul-14 07:30N 33°02' W 117°20'3 7.0
2018-Jul-14 07:00N 33°06' W 117°21'3 5.4
2018-Jul-14 06:30N 33°08' W 117°22'2 3.6
2018-Jul-14 06:00N 33°10' W 117°23'0 1.0
2018-Jul-14 05:30N 33°10' W 117°23'1 1.5
2018-Jul-14 05:00N 33°09' W 117°22'0 0.4
2018-Jul-14 04:30N 33°09' W 117°22'0 0.1
2018-Jul-14 04:00N 33°09' W 117°22'2 3.5
2018-Jul-14 03:29N 33°07' W 117°21'3 7.0
2018-Jul-14 03:00N 33°04' W 117°21'4 7.1
2018-Jul-14 02:30N 33°01' W 117°19'3 6.2
2018-Jul-14 01:57N 32°58' W 117°17'2 3.7
2018-Jul-14 01:30N 32°56' W 117°16'1 1.6
2018-Jul-14 00:55N 32°55' W 117°16'1 2.5
2018-Jul-14 00:30N 32°54' W 117°16'0 0.7
2018-Jul-13 23:57N 32°54' W 117°16'0 0.0
2018-Jul-13 23:29N 32°54' W 117°16'0 0.9
2018-Jul-13 22:58N 32°54' W 117°16'0 0.1
2018-Jul-13 22:29N 32°55' W 117°16'0 0.6
2018-Jul-13 21:59N 32°54' W 117°16'0 0.3
2018-Jul-13 21:26N 32°54' W 117°16'0 1.1
2018-Jul-13 21:00N 32°54' W 117°16'1 1.7
2018-Jul-13 20:24N 32°53' W 117°16'2 3.9
2018-Jul-13 20:00N 32°52' W 117°17'14 6.1
2018-Jul-13 17:47N 32°39' W 117°13'2 7.3
2018-Jul-13 17:29N 32°41' W 117°14'1 0.0
2018-Jul-13 04:10N 32°40' W 117°14'2 7.0
2018-Jul-13 03:54N 32°39' W 117°14'3 6.4
2018-Jul-13 03:30N 32°40' W 117°17'4 7.0
2018-Jul-13 03:00N 32°44' W 117°18'4 7.1
2018-Jul-13 02:30N 32°47' W 117°19'3 6.8
2018-Jul-13 02:00N 32°50' W 117°18'4 7.1
2018-Jul-13 01:29N 32°53' W 117°16'1 1.2
2018-Jul-13 00:58N 32°54' W 117°16'0 0.1
2018-Jul-13 00:26N 32°54' W 117°16'0 0.3
2018-Jul-12 23:58N 32°54' W 117°16'0 0.2
2018-Jul-12 23:28N 32°54' W 117°16'0 0.6
2018-Jul-12 23:01N 32°54' W 117°15'0 0.2
2018-Jul-12 22:25N 32°54' W 117°16'0 0.5
2018-Jul-12 21:59N 32°54' W 117°15'2 4.9
2018-Jul-12 21:30N 32°52' W 117°18'4 7.2
2018-Jul-12 21:00N 32°49' W 117°18'4 2.5
2018-Jul-12 19:28N 32°46' W 117°15'5 2.4
2018-Jul-12 17:12N 32°40' W 117°16'2 7.3
2018-Jul-12 16:54N 32°39' W 117°15'2 0.3
2018-Jul-12 11:23N 32°39' W 117°13'  
Track history (hours):
 
Tides and Currents Weather Stations Pressure Air Temp Water Temp Dewpoint Dewpoint Depression Visibility Wind Speed Wind Dir Waves Ship Positions

Ebbco

Owner: EVERINGHAM BROS BAIT CO, La Mesa, CA. More information available from US FCC via Universal Licensing System.

Last reported at 2018-Jul-21 19:30 UTC. Time now 2018-Jul-21 19:36 UTC.
Position N 32°53' W 117°17'.

Length 34 m.

Type: Fishing. MMSI: 367378380.

Date/timePositionNaut miles runAvg speedWind from/ knotsBaromVisibWave heightAir tempDewpointWater temp
2018-Jul-21 19:30N 32°53' W 117°17'2 0.3
2018-Jul-21 12:11N 32°52' W 117°18'1 7.1
2018-Jul-21 12:01N 32°51' W 117°19'4 7.1
2018-Jul-21 11:30N 32°47' W 117°18'8 6.0
2018-Jul-21 10:07N 32°40' W 117°14'3 6.8
2018-Jul-21 09:42N 32°43' W 117°13'1 0.0
2018-Jul-19 22:29N 32°42' W 117°14'0 0.0
2018-Jul-19 20:59N 32°42' W 117°14'3 1.6
2018-Jul-19 19:10N 32°39' W 117°14'2 6.8
2018-Jul-19 18:51N 32°40' W 117°16'3 7.6
2018-Jul-19 18:30N 32°43' W 117°17'4 7.5
2018-Jul-19 18:00N 32°46' W 117°18'4 7.5
2018-Jul-19 17:30N 32°50' W 117°19'4 7.4
2018-Jul-19 17:00N 32°54' W 117°19'4 7.2
2018-Jul-19 16:30N 32°57' W 117°19'4 7.3
2018-Jul-19 16:00N 33°01' W 117°20'4 7.1
2018-Jul-19 15:30N 33°04' W 117°21'4 7.3
2018-Jul-19 15:00N 33°08' W 117°21'0 0.3
2018-Jul-19 14:29N 33°08' W 117°21'1 0.9
2018-Jul-19 13:30N 33°07' W 117°21'3 6.2
2018-Jul-19 13:00N 33°04' W 117°20'4 7.4
2018-Jul-19 12:30N 33°01' W 117°19'3 6.9
2018-Jul-19 12:00N 32°58' W 117°17'3 5.1
2018-Jul-19 11:29N 32°55' W 117°16'2 3.5
2018-Jul-19 11:00N 32°53' W 117°16'4 6.8
2018-Jul-19 10:29N 32°50' W 117°18'4 7.5
2018-Jul-19 09:57N 32°47' W 117°16'2 0.1
2018-Jul-18 20:34N 32°46' W 117°14'0 0.7
2018-Jul-18 20:21N 32°46' W 117°15'0 0.0
2018-Jul-18 16:31N 32°46' W 117°14'0 4.2
2018-Jul-18 16:25N 32°46' W 117°15'3 6.4
2018-Jul-18 15:58N 32°48' W 117°17'3 7.1
2018-Jul-18 15:30N 32°51' W 117°18'4 7.2
2018-Jul-18 14:58N 32°54' W 117°16'1 1.3
2018-Jul-18 14:27N 32°55' W 117°16'0 0.1
2018-Jul-18 13:30N 32°55' W 117°16'1 1.2
2018-Jul-18 13:00N 32°54' W 117°16'1 2.7
2018-Jul-18 12:30N 32°53' W 117°16'0 0.3
2018-Jul-18 11:58N 32°53' W 117°16'0 0.1
2018-Jul-18 11:28N 32°53' W 117°16'5 4.8
2018-Jul-18 10:30N 32°49' W 117°19'9 7.1
2018-Jul-18 09:11N 32°40' W 117°16'2 5.1
2018-Jul-18 08:50N 32°40' W 117°14'3 7.2
2018-Jul-18 08:27N 32°43' W 117°13'1 0.1
2018-Jul-17 17:18N 32°43' W 117°12'2 1.3
2018-Jul-17 15:54N 32°42' W 117°14'0 0.6
2018-Jul-17 15:09N 32°42' W 117°14'3 5.5
2018-Jul-17 14:40N 32°39' W 117°14'2 6.7
2018-Jul-17 14:24N 32°40' W 117°16'3 7.6
2018-Jul-17 13:58N 32°43' W 117°17'3 2.5
2018-Jul-17 12:37N 32°46' W 117°14'1 4.1
2018-Jul-17 12:28N 32°46' W 117°15'2 3.2
2018-Jul-17 11:59N 32°47' W 117°16'0 0.1
2018-Jul-17 11:23N 32°47' W 117°16'0 0.7
2018-Jul-17 11:00N 32°47' W 117°16'5 2.2
2018-Jul-17 08:39N 32°43' W 117°13'1 0.1
2018-Jul-16 19:26N 32°42' W 117°14'3 3.9
2018-Jul-16 18:45N 32°39' W 117°15'2 7.0
2018-Jul-16 18:29N 32°41' W 117°16'4 7.6
2018-Jul-16 18:00N 32°44' W 117°17'4 7.5
2018-Jul-16 17:30N 32°48' W 117°18'4 7.3
2018-Jul-16 17:00N 32°51' W 117°17'4 7.5
2018-Jul-16 16:30N 32°55' W 117°16'1 1.5
2018-Jul-16 15:58N 32°56' W 117°16'0 0.1
2018-Jul-16 15:30N 32°56' W 117°16'0 0.9
2018-Jul-16 15:00N 32°56' W 117°16'1 1.8
2018-Jul-16 14:30N 32°57' W 117°17'0 0.1
2018-Jul-16 13:59N 32°57' W 117°17'0 0.1
2018-Jul-16 13:30N 32°57' W 117°17'3 6.6
2018-Jul-16 13:00N 33°00' W 117°18'3 5.7
2018-Jul-16 12:30N 32°57' W 117°17'3 5.0
2018-Jul-16 12:00N 32°55' W 117°16'1 1.9
2018-Jul-16 11:30N 32°54' W 117°16'3 6.8
2018-Jul-16 11:00N 32°51' W 117°18'6 7.3
2018-Jul-16 10:14N 32°46' W 117°17'2 7.4
2018-Jul-16 10:00N 32°44' W 117°17'4 6.9
2018-Jul-16 09:21N 32°40' W 117°16'3 5.3
2018-Jul-16 08:49N 32°42' W 117°14'1 0.1
2018-Jul-15 17:15N 32°43' W 117°13'2 1.4
2018-Jul-15 16:07N 32°42' W 117°14'0 0.0
2018-Jul-15 15:37N 32°42' W 117°14'3 1.8
2018-Jul-15 14:05N 32°39' W 117°15'1 6.7
2018-Jul-15 13:58N 32°39' W 117°16'4 7.3
2018-Jul-15 13:27N 32°43' W 117°18'3 7.4
2018-Jul-15 13:00N 32°46' W 117°19'4 7.4
2018-Jul-15 12:30N 32°50' W 117°19'4 7.2
2018-Jul-15 12:00N 32°53' W 117°17'2 3.3
2018-Jul-15 11:30N 32°54' W 117°16'0 0.4
2018-Jul-15 11:00N 32°54' W 117°16'0 0.1
2018-Jul-15 10:30N 32°54' W 117°16'1 1.0
2018-Jul-15 09:55N 32°53' W 117°16'0 0.2
2018-Jul-15 09:28N 32°53' W 117°16'0 0.3
2018-Jul-15 09:00N 32°53' W 117°16'3 6.5
2018-Jul-15 08:30N 32°51' W 117°18'11 5.6
2018-Jul-15 06:27N 32°40' W 117°14'3 0.2
2018-Jul-14 15:54N 32°43' W 117°13'4 2.3
2018-Jul-14 14:00N 32°39' W 117°15'4 7.0
2018-Jul-14 13:27N 32°43' W 117°17'3 6.7
2018-Jul-14 13:00N 32°45' W 117°15'1 0.5
2018-Jul-14 11:47N 32°46' W 117°15'2 5.8
2018-Jul-14 11:29N 32°46' W 117°17'3 6.9
2018-Jul-14 11:00N 32°48' W 117°19'3 6.8
2018-Jul-14 10:30N 32°52' W 117°18'3 6.3
2018-Jul-14 10:00N 32°55' W 117°16'0 0.4
2018-Jul-14 09:29N 32°55' W 117°16'0 0.2
2018-Jul-14 09:00N 32°55' W 117°16'1 2.5
2018-Jul-14 08:30N 32°56' W 117°17'4 6.9
2018-Jul-14 08:00N 32°59' W 117°19'3 7.1
2018-Jul-14 07:30N 33°02' W 117°20'3 7.0
2018-Jul-14 07:00N 33°06' W 117°21'3 5.4
2018-Jul-14 06:30N 33°08' W 117°22'2 3.6
2018-Jul-14 06:00N 33°10' W 117°23'0 1.0
2018-Jul-14 05:30N 33°10' W 117°23'1 1.5
2018-Jul-14 05:00N 33°09' W 117°22'0 0.4
2018-Jul-14 04:30N 33°09' W 117°22'0 0.1
2018-Jul-14 04:00N 33°09' W 117°22'2 3.5
2018-Jul-14 03:29N 33°07' W 117°21'3 7.0
2018-Jul-14 03:00N 33°04' W 117°21'4 7.1
2018-Jul-14 02:30N 33°01' W 117°19'3 6.2
2018-Jul-14 01:57N 32°58' W 117°17'2 3.7
2018-Jul-14 01:30N 32°56' W 117°16'1 1.6
2018-Jul-14 00:55N 32°55' W 117°16'1 2.5
2018-Jul-14 00:30N 32°54' W 117°16'0 0.7
2018-Jul-13 23:57N 32°54' W 117°16'0 0.0
2018-Jul-13 23:29N 32°54' W 117°16'0 0.9
2018-Jul-13 22:58N 32°54' W 117°16'0 0.1
2018-Jul-13 22:29N 32°55' W 117°16'0 0.6
2018-Jul-13 21:59N 32°54' W 117°16'0 0.3
2018-Jul-13 21:26N 32°54' W 117°16'0 1.1
2018-Jul-13 21:00N 32°54' W 117°16'1 1.7
2018-Jul-13 20:24N 32°53' W 117°16'2 3.9
2018-Jul-13 20:00N 32°52' W 117°17'14 6.1
2018-Jul-13 17:47N 32°39' W 117°13'2 7.3
2018-Jul-13 17:29N 32°41' W 117°14'1 0.0
2018-Jul-13 04:10N 32°40' W 117°14'2 7.0
2018-Jul-13 03:54N 32°39' W 117°14'3 6.4
2018-Jul-13 03:30N 32°40' W 117°17'4 7.0
2018-Jul-13 03:00N 32°44' W 117°18'4 7.1
2018-Jul-13 02:30N 32°47' W 117°19'3 6.8
2018-Jul-13 02:00N 32°50' W 117°18'4 7.1
2018-Jul-13 01:29N 32°53' W 117°16'1 1.2
2018-Jul-13 00:58N 32°54' W 117°16'0 0.1
2018-Jul-13 00:26N 32°54' W 117°16'0 0.3
2018-Jul-12 23:58N 32°54' W 117°16'0 0.2
2018-Jul-12 23:28N 32°54' W 117°16'0 0.6
2018-Jul-12 23:01N 32°54' W 117°15'0 0.2
2018-Jul-12 22:25N 32°54' W 117°16'0 0.5
2018-Jul-12 21:59N 32°54' W 117°15'2 4.9
2018-Jul-12 21:30N 32°52' W 117°18'4 7.2
2018-Jul-12 21:00N 32°49' W 117°18'4 2.5
2018-Jul-12 19:28N 32°46' W 117°15'5 2.4
2018-Jul-12 17:12N 32°40' W 117°16'2 7.3
2018-Jul-12 16:54N 32°39' W 117°15'2 0.3
2018-Jul-12 11:23N 32°39' W 117°13'  

Dump ship's entire track history